หน้าหลัก
METAR-TAF:

METAR-TAF

ท่าอากาศยาน :

Clayton, นิวเม็กซิโก, สหรัฐอเมริกา

ละติจูด: 36-26-54N, ลองจิจูด: 103-09-11W, ความสูง: 1513 ม.

การสังเกตสภาพอากาศปัจจุบัน

รายงานได้ทำขึ้นเมื่อ 1 ชั่วโมงและ 10 นาทีที่แล้ว ณ เวลา 12:55 UTC
ลม 10 นอตจากตะวันตกเฉียงใต้
อุณหภูมิ 17°C
ความชื้น 77%
ความกดอากาศ 1020 hPa
ทัศนวิสัย: 16.1 กม.
ท้องฟ้าแจ่มใส

METAR: KCAO 121255Z AUTO 22010KT 10SM CLR 17/13 A3011 RMK AO2 SLP133 T01670133

เวลา: 08:05 (14:05 UTC)


TAF: หายไป

สังเกตการณ์สภาพอากาศและพยากรณ์อากาศของสนามบินมากกว่า 4000 แห่ง (รายงาน METAR และ TAF).

สถานีที่ดูได้จะแสดงไว้ด้วยจุดสีเหลืองและสีแดงบนแผนที่.

เลื่อนเมาส์ไปเหนือจุดเพื่อดูชื่อสถานี.

แล้วคลิกเพื่อดูสังเกตการณ์และการพยากรณ์สภาพอากาศ.

ในการเปลี่ยนแผนที่: คลิกที่ปุ่มสีเขียวที่มีกากบาทสีดำเพื่อซูมเข้า; ที่ปุ่มสีเขียวที่มีขีดเพื่อซูมออก; หรือที่ลูกศรสีเขียวเพื่อไปยังแผนที่ที่อยู่ติดกัน.


METAR-TAF: